Terminal Aerodrome Forecast
Issued by NWS

Current Version | Previous Version | Graphics & Text | Print | Product List | Glossary On
Versions: 1 2 3 4 5 6 7 8 9 10 11 12 13 14 15 16 17 18
000
FTUS41 KILN 181139
TAFLUK
TAF
KLUK 181139Z 1812/1912 20005KT P6SM SCT150 BKN250
     FM181800 23008KT P6SM OVC100
     FM182100 22009KT P6SM OVC050
     FM190000 21005KT P6SM VCSH OVC035
     FM190400 24005KT P6SM OVC028
     FM190800 23004KT 5SM BR OVC018=

USA.gov is the U.S. government's official web portal to all federal, state and local government web resources and services.